createdAt,value
2019-04-07T00:04:14.893Z,0.11
2019-04-07T00:09:23.549Z,0.15
2019-04-07T00:14:32.911Z,0.14
2019-04-07T00:19:40.582Z,0.15
2019-04-07T00:24:49.370Z,0.14
2019-04-07T00:29:58.054Z,0.53
2019-04-07T00:35:06.846Z,0.41
2019-04-07T00:40:15.501Z,0.22
2019-04-07T00:45:24.334Z,0.18
2019-04-07T00:50:33.846Z,0.21
2019-04-07T00:55:42.621Z,0.12
2019-04-07T01:00:51.296Z,0.28
2019-04-07T01:06:00.106Z,0.16
2019-04-07T01:11:08.868Z,0.21
2019-04-07T01:16:17.526Z,0.13
2019-04-07T01:21:26.194Z,0.20
2019-04-07T01:26:35.166Z,0.26
2019-04-07T01:31:44.244Z,0.15
2019-04-07T01:36:52.190Z,0.13
2019-04-07T01:42:00.848Z,0.20
2019-04-07T01:47:09.681Z,0.14
2019-04-07T01:52:18.359Z,0.26
2019-04-07T01:57:27.238Z,0.32
2019-04-07T02:02:36.618Z,0.24
2019-04-07T02:07:44.604Z,0.29
2019-04-07T02:12:53.294Z,0.21
2019-04-07T02:18:02.460Z,0.43
2019-04-07T02:23:10.772Z,0.85
2019-04-07T02:28:19.640Z,0.36
2019-04-07T02:33:28.843Z,0.30
2019-04-07T02:38:36.857Z,0.72
2019-04-07T02:43:44.702Z,0.22
2019-04-07T02:48:54.319Z,0.26
2019-04-07T02:54:02.433Z,0.21
2019-04-07T02:59:10.138Z,0.34
2019-04-07T03:04:19.169Z,0.21
2019-04-07T03:09:28.228Z,0.12
2019-04-07T03:14:35.605Z,0.17
2019-04-07T03:19:45.227Z,0.32
2019-04-07T03:24:53.133Z,0.44
2019-04-07T03:30:01.146Z,1.05
2019-04-07T03:35:09.953Z,0.22
2019-04-07T03:40:18.379Z,0.29
2019-04-07T03:45:26.497Z,0.21
2019-04-07T03:50:34.754Z,0.41
2019-04-07T03:55:43.974Z,0.37
2019-04-07T04:00:53.198Z,0.52
2019-04-07T04:06:00.950Z,0.21
2019-04-07T04:11:09.732Z,0.20
2019-04-07T04:16:18.516Z,0.24
2019-04-07T04:21:27.266Z,0.23
2019-04-07T04:26:36.340Z,0.31
2019-04-07T04:31:45.840Z,0.65
2019-04-07T04:36:54.302Z,0.37
2019-04-07T04:42:01.739Z,0.49
2019-04-07T04:47:10.429Z,0.48
2019-04-07T04:52:20.602Z,0.43
2019-04-07T04:57:28.290Z,0.43
2019-04-07T05:02:35.697Z,0.52
2019-04-07T05:08:51.147Z,0.59
2019-04-07T05:13:59.294Z,0.28
2019-04-07T05:19:06.957Z,0.23
2019-04-07T05:24:15.854Z,0.31
2019-04-07T05:29:24.796Z,0.23
2019-04-07T05:34:34.509Z,0.33
2019-04-07T05:39:42.558Z,0.46
2019-04-07T05:44:50.674Z,0.59
2019-04-07T05:49:59.944Z,0.23
2019-04-07T05:55:07.811Z,0.22
2019-04-07T06:00:16.637Z,0.32
2019-04-07T06:05:24.452Z,0.44
2019-04-07T06:10:32.214Z,0.56
2019-04-07T06:15:40.975Z,0.47
2019-04-07T06:20:50.369Z,0.67
2019-04-07T06:25:59.229Z,0.25
2019-04-07T06:31:06.615Z,0.78
2019-04-07T06:36:17.650Z,0.90
2019-04-07T06:41:24.274Z,0.27
2019-04-07T06:46:31.990Z,0.36
2019-04-07T06:51:39.824Z,0.26
2019-04-07T06:56:49.023Z,0.22
2019-04-07T07:01:59.180Z,0.16
2019-04-07T07:07:06.238Z,0.28
2019-04-07T07:12:19.862Z,0.21
2019-04-07T07:18:36.802Z,0.21
2019-04-07T07:23:48.727Z,0.36
2019-04-07T07:28:54.401Z,0.33
2019-04-07T07:34:03.664Z,0.84
2019-04-07T07:39:13.383Z,0.10
2019-04-07T07:44:20.043Z,0.54
2019-04-07T07:49:33.521Z,1.12
2019-04-07T07:54:36.774Z,0.56
2019-04-07T07:59:44.756Z,0.04
2019-04-07T08:04:56.727Z,0.64
2019-04-07T08:10:02.948Z,0.27
2019-04-07T08:15:10.424Z,0.34
2019-04-07T08:20:19.642Z,1.23
2019-04-07T08:25:28.057Z,0.47
2019-04-07T08:30:36.123Z,0.59
2019-04-07T08:35:45.573Z,0.87
2019-04-07T08:40:55.184Z,0.49
2019-04-07T08:46:04.783Z,0.64
2019-04-07T08:51:11.286Z,0.36
2019-04-07T08:56:24.808Z,0.44
2019-04-07T09:01:30.552Z,0.43
2019-04-07T09:06:37.515Z,0.41
2019-04-07T09:11:46.944Z,0.51
2019-04-07T09:16:56.133Z,0.81
2019-04-07T09:22:03.593Z,0.72
2019-04-07T09:27:17.111Z,1.18
2019-04-07T09:32:20.974Z,0.74
2019-04-07T09:37:28.752Z,0.94
2019-04-07T09:42:37.881Z,1.10
2019-04-07T09:47:47.762Z,1.14
2019-04-07T09:52:54.652Z,1.10
2019-04-07T09:58:07.979Z,0.84
2019-04-07T10:03:13.585Z,1.67
2019-04-07T10:08:20.361Z,1.81
2019-04-07T10:13:29.609Z,1.09
2019-04-07T10:18:38.220Z,1.68
2019-04-07T10:23:46.456Z,1.83
2019-04-07T10:28:54.218Z,0.91
2019-04-07T10:34:03.019Z,1.57
2019-04-07T10:39:10.773Z,1.07
2019-04-07T10:44:19.548Z,1.01
2019-04-07T10:49:28.205Z,1.07
2019-04-07T10:54:37.132Z,0.81
2019-04-07T10:59:46.499Z,1.46
2019-04-07T11:04:55.222Z,1.01
2019-04-07T11:10:03.712Z,0.81
2019-04-07T11:15:11.442Z,0.33
2019-04-07T11:20:20.487Z,0.96
2019-04-07T11:25:28.498Z,0.97
2019-04-07T11:30:37.237Z,1.29
2019-04-07T11:35:46.021Z,1.29
2019-04-07T11:40:54.722Z,0.75
2019-04-07T11:46:03.601Z,0.89
2019-04-07T11:51:13.000Z,1.07
2019-04-07T11:56:20.724Z,0.72
2019-04-07T12:01:29.342Z,0.39
2019-04-07T12:06:38.647Z,1.73
2019-04-07T12:11:46.507Z,1.90
2019-04-07T12:16:56.922Z,0.82
2019-04-07T12:22:05.534Z,1.27
2019-04-07T12:27:12.651Z,0.84
2019-04-07T12:32:20.281Z,1.26
2019-04-07T12:37:28.970Z,1.71
2019-04-07T12:42:38.647Z,1.98
2019-04-07T12:47:45.945Z,1.15
2019-04-07T12:52:54.610Z,1.02
2019-04-07T12:58:04.788Z,1.47
2019-04-07T13:03:11.718Z,1.23
2019-04-07T13:08:24.106Z,1.45
2019-04-07T13:13:31.660Z,0.23
2019-04-07T13:18:38.982Z,2.33
2019-04-07T13:23:46.041Z,1.07
2019-04-07T13:28:54.511Z,2.16
2019-04-07T13:34:02.981Z,0.89
2019-04-07T13:39:10.241Z,1.07
2019-04-07T13:44:19.670Z,0.96
2019-04-07T13:49:27.918Z,0.80
2019-04-07T13:54:35.410Z,1.23
2019-04-07T13:59:45.284Z,0.66
2019-04-07T14:04:53.235Z,1.30
2019-04-07T14:10:03.780Z,1.68
2019-04-07T14:15:09.386Z,2.61
2019-04-07T14:20:17.446Z,1.53
2019-04-07T14:25:26.713Z,1.32
2019-04-07T14:30:34.362Z,1.11
2019-04-07T14:35:43.140Z,3.02
2019-04-07T14:40:52.224Z,2.83
2019-04-07T14:46:01.264Z,1.51
2019-04-07T14:51:10.133Z,1.31
2019-04-07T14:56:20.523Z,1.42
2019-04-07T15:01:28.174Z,1.42
2019-04-07T15:06:36.704Z,0.89
2019-04-07T15:11:45.632Z,0.83
2019-04-07T15:16:54.680Z,2.02
2019-04-07T15:22:03.291Z,0.62
2019-04-07T15:27:11.277Z,0.99
2019-04-07T15:33:25.372Z,1.32
2019-04-07T15:38:34.485Z,0.75
2019-04-07T15:43:43.281Z,0.43
2019-04-07T15:48:54.281Z,0.77
2019-04-07T15:54:00.658Z,0.47
2019-04-07T15:59:08.727Z,1.59
2019-04-07T16:04:16.684Z,1.69
2019-04-07T16:09:36.001Z,1.56
2019-04-07T16:14:33.667Z,2.28
2019-04-07T16:19:44.429Z,2.20
2019-04-07T16:24:53.798Z,0.98
2019-04-07T16:29:58.857Z,1.76
2019-04-07T16:35:10.389Z,0.79
2019-04-07T16:40:15.833Z,0.94
2019-04-07T16:45:24.761Z,1.91
2019-04-07T16:50:35.054Z,0.59
2019-04-07T16:55:46.574Z,0.15
2019-04-07T17:00:51.312Z,0.67
2019-04-07T17:06:01.623Z,0.88
2019-04-07T17:11:08.630Z,1.42
2019-04-07T17:16:20.138Z,0.33
2019-04-07T17:21:26.561Z,0.52
2019-04-07T17:26:36.580Z,0.32
2019-04-07T17:31:42.270Z,0.80
2019-04-07T17:36:54.661Z,1.02
2019-04-07T17:42:00.383Z,0.16
2019-04-07T17:47:08.399Z,0.07
2019-04-07T17:52:16.457Z,0.26
2019-04-07T17:57:25.821Z,0.47
2019-04-07T18:02:34.892Z,0.46
2019-04-07T18:07:44.889Z,1.06
2019-04-07T18:12:52.882Z,0.63
2019-04-07T18:18:00.552Z,0.82
2019-04-07T18:23:09.904Z,0.67
2019-04-07T18:28:21.522Z,0.25
2019-04-07T18:33:25.822Z,1.19
2019-04-07T18:38:34.614Z,0.49
2019-04-07T18:43:50.615Z,0.41
2019-04-07T18:48:53.261Z,0.34
2019-04-07T18:54:03.800Z,1.13
2019-04-07T18:59:09.598Z,0.27
2019-04-07T19:04:17.429Z,0.47
2019-04-07T19:09:29.178Z,1.34
2019-04-07T19:14:44.557Z,0.10
2019-04-07T19:19:42.762Z,0.03
2019-04-07T19:24:51.605Z,0.31
2019-04-07T19:30:00.321Z,0.15
2019-04-07T19:35:08.990Z,0.03
2019-04-07T19:40:18.779Z,0.06
2019-04-07T19:45:26.880Z,0.00
2019-04-07T19:50:34.961Z,0.31
2019-04-07T19:55:44.441Z,0.20
2019-04-07T20:00:55.056Z,0.28
2019-04-07T20:06:00.771Z,0.18
2019-04-07T20:11:09.802Z,0.10
2019-04-07T20:16:18.346Z,0.26
2019-04-07T20:21:35.795Z,0.20
2019-04-07T20:26:35.630Z,0.01
2019-04-07T20:31:45.030Z,0.06
2019-04-07T20:36:54.910Z,0.65
2019-04-07T20:42:01.047Z,0.05
2019-04-07T20:47:09.701Z,0.15
2019-04-07T20:52:22.269Z,0.12
2019-04-07T20:57:27.303Z,0.02
2019-04-07T21:02:35.390Z,0.33
2019-04-07T21:07:43.386Z,0.14
2019-04-07T21:12:52.776Z,0.36
2019-04-07T21:18:00.341Z,0.51
2019-04-07T21:23:09.247Z,0.36
2019-04-07T21:28:18.258Z,0.19
2019-04-07T21:33:26.987Z,0.14
2019-04-07T21:38:34.825Z,0.10
2019-04-07T21:43:42.640Z,0.13
2019-04-07T21:48:51.371Z,0.09
2019-04-07T21:54:02.527Z,0.12
2019-04-07T21:59:08.990Z,0.07
2019-04-07T22:04:19.977Z,0.11
2019-04-07T22:09:26.745Z,0.05
2019-04-07T22:14:37.611Z,0.48
2019-04-07T22:19:45.207Z,0.20
2019-04-07T22:24:50.951Z,0.10
2019-04-07T22:30:00.822Z,0.03
2019-04-07T22:35:08.464Z,0.31
2019-04-07T22:40:17.065Z,0.29
2019-04-07T22:45:26.478Z,0.07
2019-04-07T22:50:35.474Z,0.15
2019-04-07T22:55:42.031Z,0.13
2019-04-07T23:00:50.496Z,0.02
2019-04-07T23:05:57.574Z,0.11
2019-04-07T23:11:06.436Z,0.08
2019-04-07T23:16:17.222Z,0.08
2019-04-07T23:21:24.470Z,0.08
2019-04-07T23:26:32.032Z,0.09
2019-04-07T23:32:46.713Z,0.15
2019-04-07T23:37:55.555Z,0.12
2019-04-07T23:43:04.769Z,0.07
2019-04-07T23:48:12.532Z,0.14
2019-04-07T23:53:21.430Z,0.07
2019-04-07T23:58:30.002Z,0.08
